sensor_id;sensor_type;location;lat;lon;timestamp;pressure;altitude;pressure_sealevel;temperature;humidity
43147;BME280;28752;48.266;7.402;2024-01-16T00:00:22;99050.75;;;2.19;57.97
43147;BME280;28752;48.266;7.402;2024-01-16T00:02:48;99036.47;;;2.25;57.95
43147;BME280;28752;48.266;7.402;2024-01-16T00:05:13;99044.09;;;2.41;57.60
43147;BME280;28752;48.266;7.402;2024-01-16T00:07:39;99040.41;;;2.30;57.93
43147;BME280;28752;48.266;7.402;2024-01-16T00:10:07;99037.91;;;2.16;58.23
43147;BME280;28752;48.266;7.402;2024-01-16T00:12:32;99032.31;;;1.95;59.16
43147;BME280;28752;48.266;7.402;2024-01-16T00:14:58;99040.41;;;2.18;58.64
43147;BME280;28752;48.266;7.402;2024-01-16T00:17:23;99034.94;;;1.95;59.02
43147;BME280;28752;48.266;7.402;2024-01-16T00:19:49;99034.94;;;2.08;58.84
43147;BME280;28752;48.266;7.402;2024-01-16T00:22:14;99032.69;;;2.16;58.68
43147;BME280;28752;48.266;7.402;2024-01-16T00:24:39;99031.34;;;2.23;58.44
43147;BME280;28752;48.266;7.402;2024-01-16T00:27:05;99033.81;;;2.12;58.83
43147;BME280;28752;48.266;7.402;2024-01-16T00:29:30;99021.78;;;2.09;58.69
43147;BME280;28752;48.266;7.402;2024-01-16T00:31:56;99033.50;;;2.17;58.37
43147;BME280;28752;48.266;7.402;2024-01-16T00:34:21;99029.63;;;2.09;58.74
43147;BME280;28752;48.266;7.402;2024-01-16T00:36:47;99023.25;;;2.01;58.93
43147;BME280;28752;48.266;7.402;2024-01-16T00:39:12;99027.00;;;2.09;58.65
43147;BME280;28752;48.266;7.402;2024-01-16T00:41:38;99029.13;;;2.17;57.99
43147;BME280;28752;48.266;7.402;2024-01-16T00:44:04;99029.13;;;2.17;58.08
43147;BME280;28752;48.266;7.402;2024-01-16T00:46:29;99031.13;;;2.26;57.85
43147;BME280;28752;48.266;7.402;2024-01-16T00:48:55;99030.69;;;2.20;57.78
43147;BME280;28752;48.266;7.402;2024-01-16T00:51:21;99034.34;;;2.17;57.85
43147;BME280;28752;48.266;7.402;2024-01-16T00:53:46;99024.28;;;2.11;58.20
43147;BME280;28752;48.266;7.402;2024-01-16T00:56:12;99042.25;;;2.16;57.83
43147;BME280;28752;48.266;7.402;2024-01-16T00:58:38;99030.69;;;2.20;57.68
43147;BME280;28752;48.266;7.402;2024-01-16T01:01:04;99035.09;;;2.19;57.60
43147;BME280;28752;48.266;7.402;2024-01-16T01:03:29;99031.50;;;1.94;58.38
43147;BME280;28752;48.266;7.402;2024-01-16T01:05:55;99038.09;;;2.26;57.61
43147;BME280;28752;48.266;7.402;2024-01-16T01:08:21;99033.94;;;2.23;57.37
43147;BME280;28752;48.266;7.402;2024-01-16T01:10:46;99034.78;;;2.37;56.98
43147;BME280;28752;48.266;7.402;2024-01-16T01:13:12;99040.00;;;2.24;57.42
43147;BME280;28752;48.266;7.402;2024-01-16T01:15:38;99039.47;;;2.19;57.31
43147;BME280;28752;48.266;7.402;2024-01-16T01:18:05;99039.28;;;2.22;57.39
43147;BME280;28752;48.266;7.402;2024-01-16T01:20:31;99038.41;;;2.08;57.48
43147;BME280;28752;48.266;7.402;2024-01-16T01:22:57;99039.25;;;2.09;57.29
43147;BME280;28752;48.266;7.402;2024-01-16T01:25:23;99045.72;;;2.16;57.01
43147;BME280;28752;48.266;7.402;2024-01-16T01:27:51;99040.38;;;2.05;57.24
43147;BME280;28752;48.266;7.402;2024-01-16T01:30:16;99050.09;;;2.16;56.98
43147;BME280;28752;48.266;7.402;2024-01-16T01:32:42;99035.25;;;2.03;56.90
43147;BME280;28752;48.266;7.402;2024-01-16T01:35:09;99045.78;;;2.02;57.05
43147;BME280;28752;48.266;7.402;2024-01-16T01:37:35;99033.91;;;1.98;56.85
43147;BME280;28752;48.266;7.402;2024-01-16T01:40:01;99044.34;;;1.98;56.92
43147;BME280;28752;48.266;7.402;2024-01-16T01:42:32;99043.47;;;1.97;56.93
43147;BME280;28752;48.266;7.402;2024-01-16T01:44:57;99045.19;;;1.71;57.34
43147;BME280;28752;48.266;7.402;2024-01-16T01:47:23;99040.16;;;1.95;57.07
43147;BME280;28752;48.266;7.402;2024-01-16T01:49:48;99042.25;;;2.03;56.67
43147;BME280;28752;48.266;7.402;2024-01-16T01:52:14;99045.97;;;1.86;55.84
43147;BME280;28752;48.266;7.402;2024-01-16T01:54:40;99033.66;;;1.88;55.13
43147;BME280;28752;48.266;7.402;2024-01-16T01:57:07;99041.09;;;1.67;55.90
43147;BME280;28752;48.266;7.402;2024-01-16T01:59:33;99046.63;;;1.62;56.63
43147;BME280;28752;48.266;7.402;2024-01-16T02:01:59;99049.91;;;1.51;55.75
43147;BME280;28752;48.266;7.402;2024-01-16T02:04:26;99054.31;;;1.36;55.57
43147;BME280;28752;48.266;7.402;2024-01-16T02:06:51;99052.00;;;1.32;55.58
43147;BME280;28752;48.266;7.402;2024-01-16T02:20:41;99047.00;;;0.42;57.31
43147;BME280;28752;48.266;7.402;2024-01-16T02:23:29;99051.47;;;0.55;57.52
43147;BME280;28752;48.266;7.402;2024-01-16T02:25:54;99049.53;;;0.44;58.15
43147;BME280;28752;48.266;7.402;2024-01-16T02:28:20;99042.28;;;0.63;57.96
43147;BME280;28752;48.266;7.402;2024-01-16T02:30:45;99045.91;;;0.61;58.18
43147;BME280;28752;48.266;7.402;2024-01-16T02:33:11;99042.16;;;0.22;58.54
43147;BME280;28752;48.266;7.402;2024-01-16T02:35:37;99031.66;;;0.38;58.10
43147;BME280;28752;48.266;7.402;2024-01-16T02:38:02;99031.78;;;0.50;57.99
43147;BME280;28752;48.266;7.402;2024-01-16T02:40:27;99034.56;;;0.47;57.94
43147;BME280;28752;48.266;7.402;2024-01-16T02:42:53;99034.75;;;0.44;57.93
43147;BME280;28752;48.266;7.402;2024-01-16T02:45:20;99046.72;;;0.32;58.40
43147;BME280;28752;48.266;7.402;2024-01-16T02:47:45;99040.81;;;0.00;59.32
43147;BME280;28752;48.266;7.402;2024-01-16T02:50:10;99040.03;;;-0.02;59.87
43147;BME280;28752;48.266;7.402;2024-01-16T02:52:36;99017.03;;;-0.24;60.56
43147;BME280;28752;48.266;7.402;2024-01-16T02:55:01;99036.69;;;-0.04;60.33
43147;BME280;28752;48.266;7.402;2024-01-16T02:57:27;99036.59;;;0.28;59.64
43147;BME280;28752;48.266;7.402;2024-01-16T02:59:52;99044.69;;;-0.07;60.04
43147;BME280;28752;48.266;7.402;2024-01-16T03:02:17;99046.75;;;0.02;59.95
43147;BME280;28752;48.266;7.402;2024-01-16T03:04:42;99041.28;;;0.07;59.76
43147;BME280;28752;48.266;7.402;2024-01-16T03:07:08;99030.78;;;0.08;59.62
43147;BME280;28752;48.266;7.402;2024-01-16T03:09:33;99033.66;;;0.04;59.71
43147;BME280;28752;48.266;7.402;2024-01-16T03:11:59;99032.72;;;0.05;59.71
43147;BME280;28752;48.266;7.402;2024-01-16T03:14:25;99034.56;;;0.03;59.67
43147;BME280;28752;48.266;7.402;2024-01-16T03:16:50;99032.81;;;0.03;59.47
43147;BME280;28752;48.266;7.402;2024-01-16T03:19:16;99032.53;;;-0.23;59.63
43147;BME280;28752;48.266;7.402;2024-01-16T03:21:42;99041.03;;;-0.35;60.31
43147;BME280;28752;48.266;7.402;2024-01-16T03:24:08;99030.38;;;-0.30;60.21
43147;BME280;28752;48.266;7.402;2024-01-16T03:26:36;99024.78;;;-0.55;60.67
43147;BME280;28752;48.266;7.402;2024-01-16T03:29:02;99040.69;;;-0.29;60.13
43147;BME280;28752;48.266;7.402;2024-01-16T03:31:28;99032.03;;;-0.29;60.02
43147;BME280;28752;48.266;7.402;2024-01-16T03:33:53;99027.78;;;-0.30;60.37
43147;BME280;28752;48.266;7.402;2024-01-16T03:36:18;99027.88;;;-0.48;60.38
43147;BME280;28752;48.266;7.402;2024-01-16T03:38:44;99041.53;;;-0.44;60.49
43147;BME280;28752;48.266;7.402;2024-01-16T03:41:13;99041.97;;;-0.36;59.93
43147;BME280;28752;48.266;7.402;2024-01-16T03:43:39;99040.97;;;-0.49;60.80
43147;BME280;28752;48.266;7.402;2024-01-16T03:46:05;99037.94;;;-0.42;61.30
43147;BME280;28752;48.266;7.402;2024-01-16T03:48:30;99038.84;;;-0.27;60.74
43147;BME280;28752;48.266;7.402;2024-01-16T03:50:56;99034.44;;;-0.10;60.05
43147;BME280;28752;48.266;7.402;2024-01-16T04:07:46;99031.38;;;-0.33;60.51
43147;BME280;28752;48.266;7.402;2024-01-16T04:23:45;99030.72;;;-0.52;60.72
43147;BME280;28752;48.266;7.402;2024-01-16T04:26:10;99030.13;;;-0.42;60.50
43147;BME280;28752;48.266;7.402;2024-01-16T04:28:36;99034.69;;;-0.77;61.16
43147;BME280;28752;48.266;7.402;2024-01-16T04:31:04;99024.00;;;-0.57;60.64
43147;BME280;28752;48.266;7.402;2024-01-16T04:33:29;99015.66;;;-0.62;60.96
43147;BME280;28752;48.266;7.402;2024-01-16T04:35:55;99026.53;;;-0.55;60.68
43147;BME280;28752;48.266;7.402;2024-01-16T04:38:21;99016.81;;;-0.67;60.98
43147;BME280;28752;48.266;7.402;2024-01-16T04:40:46;99009.00;;;-0.67;61.26
43147;BME280;28752;48.266;7.402;2024-01-16T04:43:12;99001.03;;;-0.64;61.13
43147;BME280;28752;48.266;7.402;2024-01-16T04:45:37;99002.13;;;-0.68;61.15
43147;BME280;28752;48.266;7.402;2024-01-16T04:48:03;99000.03;;;-0.62;61.30
43147;BME280;28752;48.266;7.402;2024-01-16T04:50:28;98991.31;;;-0.61;61.04
43147;BME280;28752;48.266;7.402;2024-01-16T04:52:57;98995.41;;;-0.57;61.06
43147;BME280;28752;48.266;7.402;2024-01-16T04:55:25;98986.03;;;-0.59;61.11
43147;BME280;28752;48.266;7.402;2024-01-16T04:57:50;98979.97;;;-0.60;61.31
43147;BME280;28752;48.266;7.402;2024-01-16T05:00:18;98971.25;;;-0.59;61.27
43147;BME280;28752;48.266;7.402;2024-01-16T05:02:44;98973.19;;;-0.62;61.17
43147;BME280;28752;48.266;7.402;2024-01-16T05:05:09;98972.88;;;-0.56;61.08
43147;BME280;28752;48.266;7.402;2024-01-16T05:07:34;98977.22;;;-0.57;61.04
43147;BME280;28752;48.266;7.402;2024-01-16T05:10:01;98974.47;;;-0.69;61.35
43147;BME280;28752;48.266;7.402;2024-01-16T05:12:26;98976.81;;;-0.65;60.98
43147;BME280;28752;48.266;7.402;2024-01-16T05:14:51;98966.81;;;-0.57;60.88
43147;BME280;28752;48.266;7.402;2024-01-16T05:17:17;98967.31;;;-0.66;61.05
43147;BME280;28752;48.266;7.402;2024-01-16T05:19:42;98964.16;;;-0.71;60.87
43147;BME280;28752;48.266;7.402;2024-01-16T05:22:10;98964.84;;;-0.83;61.41
43147;BME280;28752;48.266;7.402;2024-01-16T05:24:35;98956.53;;;-0.74;61.32
43147;BME280;28752;48.266;7.402;2024-01-16T05:27:00;98951.91;;;-0.69;61.15
43147;BME280;28752;48.266;7.402;2024-01-16T05:29:26;98952.72;;;-0.68;61.23
43147;BME280;28752;48.266;7.402;2024-01-16T05:31:51;98948.03;;;-0.78;61.52
43147;BME280;28752;48.266;7.402;2024-01-16T05:34:16;98939.97;;;-0.73;61.21
43147;BME280;28752;48.266;7.402;2024-01-16T05:36:42;98943.53;;;-0.74;61.27
43147;BME280;28752;48.266;7.402;2024-01-16T05:39:07;98947.78;;;-0.73;61.14
43147;BME280;28752;48.266;7.402;2024-01-16T05:41:34;98941.94;;;-0.77;61.22
43147;BME280;28752;48.266;7.402;2024-01-16T05:43:59;98948.00;;;-0.92;61.60
43147;BME280;28752;48.266;7.402;2024-01-16T05:46:25;98939.28;;;-0.91;61.54
43147;BME280;28752;48.266;7.402;2024-01-16T05:48:51;98945.22;;;-0.89;61.66
43147;BME280;28752;48.266;7.402;2024-01-16T05:51:17;98950.69;;;-0.94;61.89
43147;BME280;28752;48.266;7.402;2024-01-16T05:53:43;98945.31;;;-0.91;61.79
43147;BME280;28752;48.266;7.402;2024-01-16T05:56:08;98925.84;;;-0.99;61.72
43147;BME280;28752;48.266;7.402;2024-01-16T05:58:34;98938.09;;;-1.01;61.85
43147;BME280;28752;48.266;7.402;2024-01-16T06:01:04;98946.50;;;-1.12;62.04
43147;BME280;28752;48.266;7.402;2024-01-16T06:03:29;98932.81;;;-1.00;62.19
43147;BME280;28752;48.266;7.402;2024-01-16T06:05:55;98935.59;;;-1.03;62.09
43147;BME280;28752;48.266;7.402;2024-01-16T06:08:20;98935.34;;;-0.98;62.11
43147;BME280;28752;48.266;7.402;2024-01-16T06:10:46;98925.75;;;-0.98;61.91
43147;BME280;28752;48.266;7.402;2024-01-16T06:13:11;98922.34;;;-0.98;62.17
43147;BME280;28752;48.266;7.402;2024-01-16T06:15:37;98920.66;;;-0.99;62.17
43147;BME280;28752;48.266;7.402;2024-01-16T06:18:02;98920.09;;;-1.04;62.36
43147;BME280;28752;48.266;7.402;2024-01-16T06:20:28;98919.47;;;-1.10;62.09
43147;BME280;28752;48.266;7.402;2024-01-16T06:22:54;98914.97;;;-1.06;61.91
43147;BME280;28752;48.266;7.402;2024-01-16T06:25:19;98911.13;;;-1.15;61.95
43147;BME280;28752;48.266;7.402;2024-01-16T06:27:45;98915.50;;;-1.15;61.68
43147;BME280;28752;48.266;7.402;2024-01-16T06:30:11;98912.28;;;-1.20;61.75
43147;BME280;28752;48.266;7.402;2024-01-16T06:32:36;98920.06;;;-1.20;61.59
43147;BME280;28752;48.266;7.402;2024-01-16T06:35:02;98916.28;;;-1.31;61.58
43147;BME280;28752;48.266;7.402;2024-01-16T06:37:27;98913.13;;;-1.36;61.72
43147;BME280;28752;48.266;7.402;2024-01-16T06:39:53;98907.94;;;-1.36;61.90
43147;BME280;28752;48.266;7.402;2024-01-16T06:42:18;98912.97;;;-1.33;61.77
43147;BME280;28752;48.266;7.402;2024-01-16T06:44:44;98912.22;;;-1.35;61.54
43147;BME280;28752;48.266;7.402;2024-01-16T06:47:10;98911.53;;;-1.38;61.27
43147;BME280;28752;48.266;7.402;2024-01-16T06:49:35;98917.06;;;-1.45;61.23
43147;BME280;28752;48.266;7.402;2024-01-16T06:52:00;98912.28;;;-1.52;61.09
43147;BME280;28752;48.266;7.402;2024-01-16T06:54:25;98919.22;;;-1.53;60.98
43147;BME280;28752;48.266;7.402;2024-01-16T06:56:51;98919.66;;;-1.61;61.19
43147;BME280;28752;48.266;7.402;2024-01-16T06:59:16;98925.00;;;-1.64;61.06
43147;BME280;28752;48.266;7.402;2024-01-16T07:01:44;98927.69;;;-1.65;61.22
43147;BME280;28752;48.266;7.402;2024-01-16T07:04:10;98927.91;;;-1.70;61.43
43147;BME280;28752;48.266;7.402;2024-01-16T07:06:35;98922.56;;;-1.67;61.64
43147;BME280;28752;48.266;7.402;2024-01-16T07:09:00;98919.09;;;-1.67;61.46
43147;BME280;28752;48.266;7.402;2024-01-16T07:11:25;98926.97;;;-1.69;61.34
43147;BME280;28752;48.266;7.402;2024-01-16T07:13:51;98924.94;;;-1.80;61.44
43147;BME280;28752;48.266;7.402;2024-01-16T07:16:16;98923.38;;;-1.82;61.60
43147;BME280;28752;48.266;7.402;2024-01-16T07:18:42;98929.00;;;-1.74;61.53
43147;BME280;28752;48.266;7.402;2024-01-16T07:21:17;98930.75;;;-1.74;61.67
43147;BME280;28752;48.266;7.402;2024-01-16T07:23:42;98936.63;;;-1.71;61.72
43147;BME280;28752;48.266;7.402;2024-01-16T07:26:08;98932.34;;;-1.72;61.80
43147;BME280;28752;48.266;7.402;2024-01-16T07:28:33;98942.22;;;-1.63;61.58
43147;BME280;28752;48.266;7.402;2024-01-16T07:30:58;98946.19;;;-1.55;61.07
43147;BME280;28752;48.266;7.402;2024-01-16T07:33:24;98959.66;;;-1.65;61.57
43147;BME280;28752;48.266;7.402;2024-01-16T07:35:49;98959.50;;;-1.62;61.89
43147;BME280;28752;48.266;7.402;2024-01-16T07:38:14;98957.94;;;-1.48;61.69
43147;BME280;28752;48.266;7.402;2024-01-16T07:40:40;98958.03;;;-1.34;61.07
43147;BME280;28752;48.266;7.402;2024-01-16T07:43:05;98952.50;;;-1.28;60.99
43147;BME280;28752;48.266;7.402;2024-01-16T07:45:31;98958.47;;;-1.26;60.47
43147;BME280;28752;48.266;7.402;2024-01-16T07:47:57;98960.31;;;-1.12;60.54
43147;BME280;28752;48.266;7.402;2024-01-16T07:50:23;98960.97;;;-1.08;60.39
43147;BME280;28752;48.266;7.402;2024-01-16T07:52:48;98964.00;;;-1.00;60.40
43147;BME280;28752;48.266;7.402;2024-01-16T07:55:14;98954.19;;;-0.95;60.39
43147;BME280;28752;48.266;7.402;2024-01-16T07:57:39;98956.28;;;-1.01;60.44
43147;BME280;28752;48.266;7.402;2024-01-16T08:00:05;98951.94;;;-0.85;60.10
43147;BME280;28752;48.266;7.402;2024-01-16T08:02:34;98950.47;;;-0.75;60.16
43147;BME280;28752;48.266;7.402;2024-01-16T08:04:59;98951.34;;;-0.74;60.12
43147;BME280;28752;48.266;7.402;2024-01-16T08:07:25;98950.28;;;-0.56;59.96
43147;BME280;28752;48.266;7.402;2024-01-16T08:09:50;98958.44;;;-0.31;59.43
43147;BME280;28752;48.266;7.402;2024-01-16T08:12:15;98961.88;;;-0.31;59.24
43147;BME280;28752;48.266;7.402;2024-01-16T08:14:41;98951.09;;;-0.39;59.87
43147;BME280;28752;48.266;7.402;2024-01-16T08:17:06;98951.53;;;-0.02;59.00
43147;BME280;28752;48.266;7.402;2024-01-16T08:19:32;98946.81;;;0.05;58.63
43147;BME280;28752;48.266;7.402;2024-01-16T08:21:57;98943.56;;;0.30;58.16
43147;BME280;28752;48.266;7.402;2024-01-16T08:24:23;98943.38;;;0.33;57.79
43147;BME280;28752;48.266;7.402;2024-01-16T08:26:49;98939.94;;;0.47;57.50
43147;BME280;28752;48.266;7.402;2024-01-16T08:29:15;98941.25;;;0.54;57.04
43147;BME280;28752;48.266;7.402;2024-01-16T08:31:40;98938.53;;;0.56;56.96
43147;BME280;28752;48.266;7.402;2024-01-16T08:34:05;98929.59;;;0.45;57.25
43147;BME280;28752;48.266;7.402;2024-01-16T08:36:31;98926.25;;;0.58;57.20
43147;BME280;28752;48.266;7.402;2024-01-16T08:38:56;98915.09;;;0.70;56.99
43147;BME280;28752;48.266;7.402;2024-01-16T08:41:21;98933.97;;;0.59;56.90
43147;BME280;28752;48.266;7.402;2024-01-16T08:43:47;98926.16;;;0.59;57.04
43147;BME280;28752;48.266;7.402;2024-01-16T08:46:13;98927.16;;;0.71;56.66
43147;BME280;28752;48.266;7.402;2024-01-16T08:48:38;98922.03;;;0.69;56.51
43147;BME280;28752;48.266;7.402;2024-01-16T08:51:07;98931.28;;;0.46;57.19
43147;BME280;28752;48.266;7.402;2024-01-16T08:53:33;98941.25;;;0.54;57.33
43147;BME280;28752;48.266;7.402;2024-01-16T08:55:59;98937.88;;;0.38;57.85
43147;BME280;28752;48.266;7.402;2024-01-16T08:58:25;98937.97;;;0.36;57.97
43147;BME280;28752;48.266;7.402;2024-01-16T09:00:50;98942.06;;;0.55;57.63
43147;BME280;28752;48.266;7.402;2024-01-16T09:03:15;98947.19;;;0.42;58.42
43147;BME280;28752;48.266;7.402;2024-01-16T09:05:42;98954.16;;;0.70;57.84
43147;BME280;28752;48.266;7.402;2024-01-16T09:08:08;98942.16;;;0.67;58.15
43147;BME280;28752;48.266;7.402;2024-01-16T09:24:52;98944.25;;;1.44;56.62
43147;BME280;28752;48.266;7.402;2024-01-16T09:27:17;98934.78;;;1.43;56.40
43147;BME280;28752;48.266;7.402;2024-01-16T09:29:43;98930.03;;;1.63;55.77
43147;BME280;28752;48.266;7.402;2024-01-16T09:32:08;98923.44;;;1.57;55.84
43147;BME280;28752;48.266;7.402;2024-01-16T09:34:34;98925.53;;;1.65;55.51
43147;BME280;28752;48.266;7.402;2024-01-16T09:36:59;98921.38;;;1.75;55.41
43147;BME280;28752;48.266;7.402;2024-01-16T09:39:27;98922.50;;;1.71;55.61
43147;BME280;28752;48.266;7.402;2024-01-16T09:41:52;98921.69;;;1.83;55.44
43147;BME280;28752;48.266;7.402;2024-01-16T09:44:18;98927.56;;;2.00;55.22
43147;BME280;28752;48.266;7.402;2024-01-16T09:46:44;98915.63;;;1.95;55.42
43147;BME280;28752;48.266;7.402;2024-01-16T09:49:14;98914.59;;;2.11;55.30
43147;BME280;28752;48.266;7.402;2024-01-16T09:51:39;98918.16;;;2.10;55.66
43147;BME280;28752;48.266;7.402;2024-01-16T09:54:05;98919.91;;;1.58;56.57
43147;BME280;28752;48.266;7.402;2024-01-16T09:56:35;98920.66;;;1.99;56.07
43147;BME280;28752;48.266;7.402;2024-01-16T09:59:05;98932.97;;;2.09;56.27
43147;BME280;28752;48.266;7.402;2024-01-16T10:01:33;98926.50;;;2.41;55.07
43147;BME280;28752;48.266;7.402;2024-01-16T10:03:58;98922.91;;;2.55;53.88
43147;BME280;28752;48.266;7.402;2024-01-16T10:06:27;98915.72;;;2.58;54.00
43147;BME280;28752;48.266;7.402;2024-01-16T10:08:53;98924.00;;;2.76;53.56
43147;BME280;28752;48.266;7.402;2024-01-16T10:11:18;98913.78;;;2.73;53.37
43147;BME280;28752;48.266;7.402;2024-01-16T10:13:44;98905.53;;;2.66;53.07
43147;BME280;28752;48.266;7.402;2024-01-16T10:16:10;98921.47;;;2.51;53.35
43147;BME280;28752;48.266;7.402;2024-01-16T10:18:35;98914.78;;;2.34;53.71
43147;BME280;28752;48.266;7.402;2024-01-16T10:21:03;98915.41;;;2.63;53.63
43147;BME280;28752;48.266;7.402;2024-01-16T10:23:32;98906.25;;;2.69;53.43
43147;BME280;28752;48.266;7.402;2024-01-16T10:26:10;98900.44;;;2.65;53.49
43147;BME280;28752;48.266;7.402;2024-01-16T10:28:38;98900.00;;;2.71;53.29
43147;BME280;28752;48.266;7.402;2024-01-16T10:31:11;98895.59;;;2.72;52.97
43147;BME280;28752;48.266;7.402;2024-01-16T10:33:37;98889.84;;;2.79;52.60
43147;BME280;28752;48.266;7.402;2024-01-16T10:36:14;98895.75;;;2.44;52.85
43147;BME280;28752;48.266;7.402;2024-01-16T10:38:43;98898.03;;;2.62;52.88
43147;BME280;28752;48.266;7.402;2024-01-16T10:41:17;98898.97;;;2.98;52.35
43147;BME280;28752;48.266;7.402;2024-01-16T10:43:43;98891.50;;;2.80;51.76
43147;BME280;28752;48.266;7.402;2024-01-16T10:46:14;98893.63;;;2.99;51.04
43147;BME280;28752;48.266;7.402;2024-01-16T10:48:42;98896.28;;;3.11;51.33
43147;BME280;28752;48.266;7.402;2024-01-16T10:51:13;98887.50;;;2.88;51.67
43147;BME280;28752;48.266;7.402;2024-01-16T10:53:42;98878.50;;;3.16;50.69
43147;BME280;28752;48.266;7.402;2024-01-16T10:56:10;98879.66;;;3.12;51.55
43147;BME280;28752;48.266;7.402;2024-01-16T10:58:39;98877.19;;;2.73;51.77
43147;BME280;28752;48.266;7.402;2024-01-16T11:01:05;98874.56;;;3.22;51.86
43147;BME280;28752;48.266;7.402;2024-01-16T11:06:05;98885.13;;;3.09;52.39
43147;BME280;28752;48.266;7.402;2024-01-16T11:08:31;98876.41;;;3.32;51.91
43147;BME280;28752;48.266;7.402;2024-01-16T11:11:01;98873.19;;;3.29;51.68
43147;BME280;28752;48.266;7.402;2024-01-16T11:13:33;98874.19;;;3.50;51.10
43147;BME280;28752;48.266;7.402;2024-01-16T11:15:59;98871.50;;;3.28;51.20
43147;BME280;28752;48.266;7.402;2024-01-16T11:18:26;98877.41;;;3.18;52.21
43147;BME280;28752;48.266;7.402;2024-01-16T11:20:53;98879.09;;;3.19;51.94
43147;BME280;28752;48.266;7.402;2024-01-16T11:23:19;98871.72;;;3.25;51.22
43147;BME280;28752;48.266;7.402;2024-01-16T11:25:45;98864.34;;;3.54;51.19
43147;BME280;28752;48.266;7.402;2024-01-16T11:28:14;98856.09;;;3.94;50.75
43147;BME280;28752;48.266;7.402;2024-01-16T11:30:40;98849.75;;;3.74;50.64
43147;BME280;28752;48.266;7.402;2024-01-16T11:33:06;98840.50;;;3.81;50.14
43147;BME280;28752;48.266;7.402;2024-01-16T11:35:35;98846.03;;;3.65;50.44
43147;BME280;28752;48.266;7.402;2024-01-16T11:38:16;98850.84;;;3.94;49.70
43147;BME280;28752;48.266;7.402;2024-01-16T11:40:42;98844.25;;;3.66;49.63
43147;BME280;28752;48.266;7.402;2024-01-16T11:45:52;98828.44;;;3.90;49.50
43147;BME280;28752;48.266;7.402;2024-01-16T11:48:18;98820.13;;;4.07;49.26
43147;BME280;28752;48.266;7.402;2024-01-16T11:50:45;98804.25;;;4.20;49.00
43147;BME280;28752;48.266;7.402;2024-01-16T11:53:10;98797.22;;;4.32;48.80
43147;BME280;28752;48.266;7.402;2024-01-16T12:01:25;98776.38;;;4.42;48.66
43147;BME280;28752;48.266;7.402;2024-01-16T12:04:07;98777.56;;;4.26;48.98
43147;BME280;28752;48.266;7.402;2024-01-16T12:06:34;98770.22;;;4.64;48.56
43147;BME280;28752;48.266;7.402;2024-01-16T12:09:16;98768.97;;;4.47;49.08
43147;BME280;28752;48.266;7.402;2024-01-16T12:11:43;98763.16;;;4.32;48.84
43147;BME280;28752;48.266;7.402;2024-01-16T12:14:11;98759.81;;;4.41;48.46
43147;BME280;28752;48.266;7.402;2024-01-16T12:16:40;98753.75;;;4.73;47.90
43147;BME280;28752;48.266;7.402;2024-01-16T12:19:08;98739.25;;;4.58;48.29
43147;BME280;28752;48.266;7.402;2024-01-16T12:21:38;98732.75;;;4.73;47.57
43147;BME280;28752;48.266;7.402;2024-01-16T12:24:04;98744.41;;;4.80;47.51
43147;BME280;28752;48.266;7.402;2024-01-16T12:26:30;98741.41;;;4.85;46.85
43147;BME280;28752;48.266;7.402;2024-01-16T12:28:56;98736.94;;;4.76;46.93
43147;BME280;28752;48.266;7.402;2024-01-16T12:31:21;98735.47;;;4.83;47.20
43147;BME280;28752;48.266;7.402;2024-01-16T12:33:46;98738.16;;;4.93;46.98
43147;BME280;28752;48.266;7.402;2024-01-16T12:36:12;98734.56;;;4.73;47.24
43147;BME280;28752;48.266;7.402;2024-01-16T12:38:40;98740.84;;;4.82;46.69
43147;BME280;28752;48.266;7.402;2024-01-16T12:41:08;98733.81;;;5.03;46.55
43147;BME280;28752;48.266;7.402;2024-01-16T12:43:34;98735.75;;;5.01;45.99
43147;BME280;28752;48.266;7.402;2024-01-16T12:46:02;98729.13;;;4.86;46.94
43147;BME280;28752;48.266;7.402;2024-01-16T12:48:27;98729.91;;;4.97;47.15
43147;BME280;28752;48.266;7.402;2024-01-16T12:51:11;98721.56;;;4.71;46.89
43147;BME280;28752;48.266;7.402;2024-01-16T12:53:37;98725.63;;;4.75;46.96
43147;BME280;28752;48.266;7.402;2024-01-16T12:56:05;98731.06;;;4.84;46.61
43147;BME280;28752;48.266;7.402;2024-01-16T12:58:36;98722.41;;;4.93;47.68
43147;BME280;28752;48.266;7.402;2024-01-16T13:01:26;98720.75;;;4.92;47.64
43147;BME280;28752;48.266;7.402;2024-01-16T13:03:55;98709.25;;;5.04;47.36
43147;BME280;28752;48.266;7.402;2024-01-16T13:06:21;98712.13;;;5.01;47.42
43147;BME280;28752;48.266;7.402;2024-01-16T13:08:48;98705.59;;;4.95;47.50
43147;BME280;28752;48.266;7.402;2024-01-16T13:11:13;98702.06;;;5.06;47.87
43147;BME280;28752;48.266;7.402;2024-01-16T13:13:47;98696.78;;;4.96;47.80
43147;BME280;28752;48.266;7.402;2024-01-16T13:16:13;98700.16;;;5.08;47.88
43147;BME280;28752;48.266;7.402;2024-01-16T13:18:39;98694.34;;;5.05;46.83
43147;BME280;28752;48.266;7.402;2024-01-16T13:21:04;98688.78;;;4.98;47.16
43147;BME280;28752;48.266;7.402;2024-01-16T13:23:31;98688.38;;;4.82;47.22
43147;BME280;28752;48.266;7.402;2024-01-16T13:25:56;98678.88;;;4.48;48.08
43147;BME280;28752;48.266;7.402;2024-01-16T13:28:25;98673.81;;;4.68;47.33
43147;BME280;28752;48.266;7.402;2024-01-16T13:30:52;98680.06;;;4.76;47.06
43147;BME280;28752;48.266;7.402;2024-01-16T13:33:17;98675.28;;;4.82;46.87
43147;BME280;28752;48.266;7.402;2024-01-16T13:35:44;98677.56;;;4.96;46.04
43147;BME280;28752;48.266;7.402;2024-01-16T13:38:11;98673.88;;;4.98;46.27
43147;BME280;28752;48.266;7.402;2024-01-16T13:40:36;98669.13;;;4.92;45.69
43147;BME280;28752;48.266;7.402;2024-01-16T13:43:05;98665.66;;;4.92;45.12
43147;BME280;28752;48.266;7.402;2024-01-16T13:45:34;98667.03;;;4.86;46.44
43147;BME280;28752;48.266;7.402;2024-01-16T13:48:04;98656.84;;;4.93;46.38
43147;BME280;28752;48.266;7.402;2024-01-16T13:50:30;98670.78;;;4.93;46.63
43147;BME280;28752;48.266;7.402;2024-01-16T13:52:56;98662.16;;;4.82;46.32
43147;BME280;28752;48.266;7.402;2024-01-16T13:55:21;98656.84;;;4.93;46.14
43147;BME280;28752;48.266;7.402;2024-01-16T13:57:47;98659.97;;;4.87;46.78
43147;BME280;28752;48.266;7.402;2024-01-16T14:00:14;98654.41;;;4.80;47.20
43147;BME280;28752;48.266;7.402;2024-01-16T14:02:49;98662.59;;;4.87;46.67
43147;BME280;28752;48.266;7.402;2024-01-16T14:05:18;98666.38;;;4.94;46.23
43147;BME280;28752;48.266;7.402;2024-01-16T14:07:50;98657.44;;;4.75;46.94